sensor_id;sensor_type;location;lat;lon;timestamp;P1;durP1;ratioP1;P2;durP2;ratioP2
21727;SDS011;11026;50.560;17.852;2022-12-13T00:01:47;14.45;;;10.95;;
21727;SDS011;11026;50.560;17.852;2022-12-13T00:04:16;14.65;;;10.23;;
21727;SDS011;11026;50.560;17.852;2022-12-13T00:06:46;17.05;;;12.05;;
21727;SDS011;11026;50.560;17.852;2022-12-13T00:09:15;13.88;;;10.00;;
21727;SDS011;11026;50.560;17.852;2022-12-13T00:11:45;13.00;;;10.02;;
21727;SDS011;11026;50.560;17.852;2022-12-13T00:14:14;13.95;;;10.77;;
21727;SDS011;11026;50.560;17.852;2022-12-13T00:16:47;14.65;;;10.82;;
21727;SDS011;11026;50.560;17.852;2022-12-13T00:19:15;12.90;;;10.38;;
21727;SDS011;11026;50.560;17.852;2022-12-13T00:21:43;13.65;;;10.73;;
21727;SDS011;11026;50.560;17.852;2022-12-13T00:24:13;13.15;;;10.15;;
21727;SDS011;11026;50.560;17.852;2022-12-13T00:26:43;14.88;;;10.27;;
21727;SDS011;11026;50.560;17.852;2022-12-13T00:29:11;11.50;;;8.90;;
21727;SDS011;11026;50.560;17.852;2022-12-13T00:31:39;14.70;;;10.30;;
21727;SDS011;11026;50.560;17.852;2022-12-13T00:34:27;15.80;;;11.00;;
21727;SDS011;11026;50.560;17.852;2022-12-13T00:36:54;14.38;;;10.05;;
21727;SDS011;11026;50.560;17.852;2022-12-13T00:39:25;12.55;;;10.00;;
21727;SDS011;11026;50.560;17.852;2022-12-13T00:41:52;13.02;;;9.68;;
21727;SDS011;11026;50.560;17.852;2022-12-13T00:44:22;13.77;;;9.77;;
21727;SDS011;11026;50.560;17.852;2022-12-13T00:46:49;12.93;;;10.20;;
21727;SDS011;11026;50.560;17.852;2022-12-13T00:49:17;14.52;;;11.80;;
21727;SDS011;11026;50.560;17.852;2022-12-13T00:51:45;13.43;;;10.63;;
21727;SDS011;11026;50.560;17.852;2022-12-13T00:54:15;13.35;;;10.35;;
21727;SDS011;11026;50.560;17.852;2022-12-13T00:56:43;14.45;;;10.95;;
21727;SDS011;11026;50.560;17.852;2022-12-13T00:59:11;14.45;;;11.38;;
21727;SDS011;11026;50.560;17.852;2022-12-13T01:01:42;14.65;;;9.98;;
21727;SDS011;11026;50.560;17.852;2022-12-13T01:04:10;13.77;;;10.48;;
21727;SDS011;11026;50.560;17.852;2022-12-13T01:12:04;13.40;;;9.98;;
21727;SDS011;11026;50.560;17.852;2022-12-13T01:14:36;15.35;;;10.68;;
21727;SDS011;11026;50.560;17.852;2022-12-13T01:17:05;16.33;;;12.52;;
21727;SDS011;11026;50.560;17.852;2022-12-13T01:19:35;15.75;;;12.05;;
21727;SDS011;11026;50.560;17.852;2022-12-13T01:22:03;16.23;;;11.15;;
21727;SDS011;11026;50.560;17.852;2022-12-13T01:24:32;16.77;;;11.15;;
21727;SDS011;11026;50.560;17.852;2022-12-13T01:27:00;14.65;;;11.23;;
21727;SDS011;11026;50.560;17.852;2022-12-13T01:29:27;14.07;;;10.77;;
21727;SDS011;11026;50.560;17.852;2022-12-13T01:31:57;14.70;;;10.27;;
21727;SDS011;11026;50.560;17.852;2022-12-13T01:34:24;15.10;;;11.00;;
21727;SDS011;11026;50.560;17.852;2022-12-13T01:36:53;14.52;;;10.52;;
21727;SDS011;11026;50.560;17.852;2022-12-13T01:39:24;13.25;;;9.65;;
21727;SDS011;11026;50.560;17.852;2022-12-13T01:41:53;15.25;;;10.55;;
21727;SDS011;11026;50.560;17.852;2022-12-13T01:47:36;14.07;;;10.07;;
21727;SDS011;11026;50.560;17.852;2022-12-13T01:50:19;13.45;;;9.95;;
21727;SDS011;11026;50.560;17.852;2022-12-13T01:52:57;15.85;;;10.95;;
21727;SDS011;11026;50.560;17.852;2022-12-13T01:55:27;14.07;;;10.85;;
21727;SDS011;11026;50.560;17.852;2022-12-13T01:58:06;13.43;;;9.80;;
21727;SDS011;11026;50.560;17.852;2022-12-13T02:03:09;13.45;;;10.48;;
21727;SDS011;11026;50.560;17.852;2022-12-13T02:05:57;15.35;;;10.10;;
21727;SDS011;11026;50.560;17.852;2022-12-13T02:08:27;17.60;;;10.68;;
21727;SDS011;11026;50.560;17.852;2022-12-13T02:11:01;15.05;;;10.73;;
21727;SDS011;11026;50.560;17.852;2022-12-13T02:13:36;14.70;;;9.90;;
21727;SDS011;11026;50.560;17.852;2022-12-13T02:16:12;15.68;;;10.75;;
21727;SDS011;11026;50.560;17.852;2022-12-13T02:24:49;16.00;;;10.80;;
21727;SDS011;11026;50.560;17.852;2022-12-13T02:36:05;15.27;;;10.73;;
21727;SDS011;11026;50.560;17.852;2022-12-13T02:38:35;14.57;;;10.52;;
21727;SDS011;11026;50.560;17.852;2022-12-13T02:46:51;15.48;;;11.10;;
21727;SDS011;11026;50.560;17.852;2022-12-13T02:49:51;16.50;;;11.50;;
21727;SDS011;11026;50.560;17.852;2022-12-13T02:52:24;13.73;;;10.25;;
21727;SDS011;11026;50.560;17.852;2022-12-13T02:54:55;18.08;;;11.48;;
21727;SDS011;11026;50.560;17.852;2022-12-13T02:57:33;16.00;;;11.57;;
21727;SDS011;11026;50.560;17.852;2022-12-13T03:00:10;14.63;;;10.85;;
21727;SDS011;11026;50.560;17.852;2022-12-13T03:08:44;18.52;;;11.68;;
21727;SDS011;11026;50.560;17.852;2022-12-13T03:11:21;18.10;;;11.70;;
21727;SDS011;11026;50.560;17.852;2022-12-13T03:16:26;18.20;;;11.75;;
21727;SDS011;11026;50.560;17.852;2022-12-13T03:19:00;18.63;;;11.70;;
21727;SDS011;11026;50.560;17.852;2022-12-13T03:21:37;16.15;;;11.77;;
21727;SDS011;11026;50.560;17.852;2022-12-13T03:24:16;16.35;;;12.43;;
21727;SDS011;11026;50.560;17.852;2022-12-13T03:26:46;17.13;;;12.73;;
21727;SDS011;11026;50.560;17.852;2022-12-13T03:29:15;17.55;;;12.57;;
21727;SDS011;11026;50.560;17.852;2022-12-13T03:31:51;17.13;;;12.10;;
21727;SDS011;11026;50.560;17.852;2022-12-13T03:34:20;17.85;;;12.35;;
21727;SDS011;11026;50.560;17.852;2022-12-13T03:36:50;18.35;;;13.07;;
21727;SDS011;11026;50.560;17.852;2022-12-13T03:39:18;17.00;;;11.65;;
21727;SDS011;11026;50.560;17.852;2022-12-13T03:41:48;18.05;;;11.70;;
21727;SDS011;11026;50.560;17.852;2022-12-13T03:44:18;16.33;;;11.32;;
21727;SDS011;11026;50.560;17.852;2022-12-13T03:46:45;17.77;;;11.55;;
21727;SDS011;11026;50.560;17.852;2022-12-13T03:49:14;15.82;;;10.43;;
21727;SDS011;11026;50.560;17.852;2022-12-13T03:51:43;17.75;;;11.40;;
21727;SDS011;11026;50.560;17.852;2022-12-13T03:54:11;16.90;;;11.90;;
21727;SDS011;11026;50.560;17.852;2022-12-13T03:56:38;16.00;;;11.25;;
21727;SDS011;11026;50.560;17.852;2022-12-13T03:59:07;16.67;;;11.77;;
21727;SDS011;11026;50.560;17.852;2022-12-13T04:01:35;17.05;;;11.57;;
21727;SDS011;11026;50.560;17.852;2022-12-13T04:04:03;16.70;;;11.35;;
21727;SDS011;11026;50.560;17.852;2022-12-13T04:06:30;18.52;;;11.95;;
21727;SDS011;11026;50.560;17.852;2022-12-13T04:09:05;18.42;;;12.88;;
21727;SDS011;11026;50.560;17.852;2022-12-13T04:11:34;18.08;;;12.63;;
21727;SDS011;11026;50.560;17.852;2022-12-13T04:14:19;19.48;;;12.68;;
21727;SDS011;11026;50.560;17.852;2022-12-13T04:16:49;18.45;;;11.18;;
21727;SDS011;11026;50.560;17.852;2022-12-13T04:19:19;17.83;;;11.85;;
21727;SDS011;11026;50.560;17.852;2022-12-13T04:21:51;17.63;;;11.80;;
21727;SDS011;11026;50.560;17.852;2022-12-13T04:24:22;18.50;;;12.82;;
21727;SDS011;11026;50.560;17.852;2022-12-13T04:26:58;16.45;;;11.90;;
21727;SDS011;11026;50.560;17.852;2022-12-13T04:29:26;17.60;;;12.13;;
21727;SDS011;11026;50.560;17.852;2022-12-13T04:34:50;15.68;;;10.45;;
21727;SDS011;11026;50.560;17.852;2022-12-13T04:37:26;17.50;;;11.77;;
21727;SDS011;11026;50.560;17.852;2022-12-13T04:39:56;15.93;;;11.40;;
21727;SDS011;11026;50.560;17.852;2022-12-13T04:42:26;19.38;;;12.20;;
21727;SDS011;11026;50.560;17.852;2022-12-13T04:44:54;18.05;;;10.90;;
21727;SDS011;11026;50.560;17.852;2022-12-13T04:47:23;15.73;;;11.10;;
21727;SDS011;11026;50.560;17.852;2022-12-13T04:49:50;15.77;;;11.13;;
21727;SDS011;11026;50.560;17.852;2022-12-13T04:52:18;16.70;;;11.05;;
21727;SDS011;11026;50.560;17.852;2022-12-13T04:54:48;16.30;;;11.70;;
21727;SDS011;11026;50.560;17.852;2022-12-13T04:57:21;20.00;;;12.32;;
21727;SDS011;11026;50.560;17.852;2022-12-13T04:59:49;17.25;;;11.18;;
21727;SDS011;11026;50.560;17.852;2022-12-13T05:02:16;18.13;;;12.07;;
21727;SDS011;11026;50.560;17.852;2022-12-13T05:04:50;20.27;;;12.27;;
21727;SDS011;11026;50.560;17.852;2022-12-13T05:07:21;27.30;;;14.48;;
21727;SDS011;11026;50.560;17.852;2022-12-13T05:09:48;38.88;;;17.52;;
21727;SDS011;11026;50.560;17.852;2022-12-13T05:12:16;31.30;;;15.05;;
21727;SDS011;11026;50.560;17.852;2022-12-13T05:14:49;17.83;;;11.65;;
21727;SDS011;11026;50.560;17.852;2022-12-13T05:17:18;17.98;;;12.25;;
21727;SDS011;11026;50.560;17.852;2022-12-13T05:19:46;16.92;;;12.32;;
21727;SDS011;11026;50.560;17.852;2022-12-13T05:22:20;16.13;;;11.50;;
21727;SDS011;11026;50.560;17.852;2022-12-13T05:24:47;18.00;;;11.45;;
21727;SDS011;11026;50.560;17.852;2022-12-13T05:27:15;34.13;;;15.45;;
21727;SDS011;11026;50.560;17.852;2022-12-13T05:29:54;24.75;;;13.73;;
21727;SDS011;11026;50.560;17.852;2022-12-13T05:32:32;17.95;;;11.68;;
21727;SDS011;11026;50.560;17.852;2022-12-13T05:35:11;17.50;;;11.57;;
21727;SDS011;11026;50.560;17.852;2022-12-13T05:37:51;18.65;;;12.38;;
21727;SDS011;11026;50.560;17.852;2022-12-13T05:40:21;19.25;;;12.75;;
21727;SDS011;11026;50.560;17.852;2022-12-13T05:42:50;21.73;;;13.93;;
21727;SDS011;11026;50.560;17.852;2022-12-13T05:45:30;19.70;;;13.45;;
21727;SDS011;11026;50.560;17.852;2022-12-13T05:47:58;21.60;;;15.75;;
21727;SDS011;11026;50.560;17.852;2022-12-13T05:50:26;20.23;;;13.27;;
21727;SDS011;11026;50.560;17.852;2022-12-13T05:52:53;16.00;;;11.88;;
21727;SDS011;11026;50.560;17.852;2022-12-13T05:55:22;17.55;;;12.32;;
21727;SDS011;11026;50.560;17.852;2022-12-13T05:57:49;18.55;;;12.45;;
21727;SDS011;11026;50.560;17.852;2022-12-13T06:00:17;17.63;;;12.43;;
21727;SDS011;11026;50.560;17.852;2022-12-13T06:02:55;16.60;;;11.65;;
21727;SDS011;11026;50.560;17.852;2022-12-13T06:05:28;17.77;;;14.05;;
21727;SDS011;11026;50.560;17.852;2022-12-13T06:07:56;20.92;;;13.63;;
21727;SDS011;11026;50.560;17.852;2022-12-13T06:10:25;18.13;;;13.13;;
21727;SDS011;11026;50.560;17.852;2022-12-13T06:13:01;16.52;;;11.38;;
21727;SDS011;11026;50.560;17.852;2022-12-13T06:15:50;17.15;;;12.05;;
21727;SDS011;11026;50.560;17.852;2022-12-13T06:18:32;16.10;;;12.38;;
21727;SDS011;11026;50.560;17.852;2022-12-13T06:21:02;15.90;;;11.18;;
21727;SDS011;11026;50.560;17.852;2022-12-13T06:23:33;19.05;;;12.32;;
21727;SDS011;11026;50.560;17.852;2022-12-13T06:26:05;17.23;;;12.35;;
21727;SDS011;11026;50.560;17.852;2022-12-13T06:28:35;19.92;;;12.52;;
21727;SDS011;11026;50.560;17.852;2022-12-13T06:31:03;18.38;;;13.10;;
21727;SDS011;11026;50.560;17.852;2022-12-13T06:33:32;21.02;;;15.05;;
21727;SDS011;11026;50.560;17.852;2022-12-13T06:36:05;20.50;;;14.15;;
21727;SDS011;11026;50.560;17.852;2022-12-13T06:38:32;23.27;;;14.68;;
21727;SDS011;11026;50.560;17.852;2022-12-13T06:41:10;20.10;;;14.80;;
21727;SDS011;11026;50.560;17.852;2022-12-13T06:43:46;28.50;;;17.05;;
21727;SDS011;11026;50.560;17.852;2022-12-13T06:46:15;30.52;;;18.30;;
21727;SDS011;11026;50.560;17.852;2022-12-13T06:48:43;35.30;;;19.90;;
21727;SDS011;11026;50.560;17.852;2022-12-13T06:51:11;31.10;;;19.05;;
21727;SDS011;11026;50.560;17.852;2022-12-13T06:53:48;35.88;;;22.45;;
21727;SDS011;11026;50.560;17.852;2022-12-13T06:56:18;36.67;;;24.63;;
21727;SDS011;11026;50.560;17.852;2022-12-13T06:58:45;38.92;;;24.63;;
21727;SDS011;11026;50.560;17.852;2022-12-13T07:01:14;27.27;;;19.13;;
21727;SDS011;11026;50.560;17.852;2022-12-13T07:03:50;25.42;;;16.75;;
21727;SDS011;11026;50.560;17.852;2022-12-13T07:06:22;25.05;;;17.88;;
21727;SDS011;11026;50.560;17.852;2022-12-13T07:08:51;37.50;;;25.80;;
21727;SDS011;11026;50.560;17.852;2022-12-13T07:11:21;39.95;;;28.60;;
21727;SDS011;11026;50.560;17.852;2022-12-13T07:13:53;32.03;;;21.45;;
21727;SDS011;11026;50.560;17.852;2022-12-13T07:16:22;26.90;;;17.67;;
21727;SDS011;11026;50.560;17.852;2022-12-13T07:18:53;28.58;;;19.45;;
21727;SDS011;11026;50.560;17.852;2022-12-13T07:21:27;30.92;;;21.00;;
21727;SDS011;11026;50.560;17.852;2022-12-13T07:23:56;18.30;;;12.70;;
21727;SDS011;11026;50.560;17.852;2022-12-13T07:26:24;19.20;;;13.52;;
21727;SDS011;11026;50.560;17.852;2022-12-13T07:28:51;18.33;;;12.15;;
21727;SDS011;11026;50.560;17.852;2022-12-13T07:31:21;19.83;;;13.32;;
21727;SDS011;11026;50.560;17.852;2022-12-13T07:33:52;16.42;;;11.98;;
21727;SDS011;11026;50.560;17.852;2022-12-13T07:36:20;19.17;;;13.05;;
21727;SDS011;11026;50.560;17.852;2022-12-13T07:38:53;18.40;;;13.20;;
21727;SDS011;11026;50.560;17.852;2022-12-13T07:41:23;19.00;;;12.60;;
21727;SDS011;11026;50.560;17.852;2022-12-13T07:43:52;16.58;;;11.57;;
21727;SDS011;11026;50.560;17.852;2022-12-13T07:46:22;16.13;;;11.13;;
21727;SDS011;11026;50.560;17.852;2022-12-13T07:48:59;14.38;;;10.65;;
21727;SDS011;11026;50.560;17.852;2022-12-13T07:51:28;17.00;;;11.65;;
21727;SDS011;11026;50.560;17.852;2022-12-13T07:53:58;14.57;;;10.70;;
21727;SDS011;11026;50.560;17.852;2022-12-13T07:56:25;16.92;;;11.23;;
21727;SDS011;11026;50.560;17.852;2022-12-13T07:58:52;15.90;;;10.77;;
21727;SDS011;11026;50.560;17.852;2022-12-13T08:01:21;15.20;;;11.38;;
21727;SDS011;11026;50.560;17.852;2022-12-13T08:03:48;17.33;;;10.85;;
21727;SDS011;11026;50.560;17.852;2022-12-13T08:06:16;17.52;;;11.57;;
21727;SDS011;11026;50.560;17.852;2022-12-13T08:08:45;15.07;;;10.40;;
21727;SDS011;11026;50.560;17.852;2022-12-13T08:11:16;15.18;;;10.30;;
21727;SDS011;11026;50.560;17.852;2022-12-13T08:13:43;16.25;;;10.50;;
21727;SDS011;11026;50.560;17.852;2022-12-13T08:16:11;19.25;;;11.90;;
21727;SDS011;11026;50.560;17.852;2022-12-13T08:18:58;15.65;;;10.60;;
21727;SDS011;11026;50.560;17.852;2022-12-13T08:21:34;104.95;;;51.17;;
21727;SDS011;11026;50.560;17.852;2022-12-13T08:24:22;64.53;;;33.00;;
21727;SDS011;11026;50.560;17.852;2022-12-13T08:26:52;20.65;;;13.98;;
21727;SDS011;11026;50.560;17.852;2022-12-13T08:29:20;17.35;;;11.63;;
21727;SDS011;11026;50.560;17.852;2022-12-13T08:32:00;15.93;;;12.38;;
21727;SDS011;11026;50.560;17.852;2022-12-13T08:34:32;29.35;;;25.92;;
21727;SDS011;11026;50.560;17.852;2022-12-13T08:36:59;14.60;;;11.57;;
21727;SDS011;11026;50.560;17.852;2022-12-13T08:39:31;13.82;;;9.23;;
21727;SDS011;11026;50.560;17.852;2022-12-13T08:42:07;11.65;;;8.15;;
21727;SDS011;11026;50.560;17.852;2022-12-13T08:44:48;12.25;;;8.68;;
21727;SDS011;11026;50.560;17.852;2022-12-13T08:47:21;11.60;;;7.57;;
21727;SDS011;11026;50.560;17.852;2022-12-13T08:49:55;9.20;;;5.90;;
21727;SDS011;11026;50.560;17.852;2022-12-13T08:52:29;8.63;;;6.93;;
21727;SDS011;11026;50.560;17.852;2022-12-13T08:55:10;9.77;;;7.10;;
21727;SDS011;11026;50.560;17.852;2022-12-13T08:57:40;9.55;;;7.82;;
21727;SDS011;11026;50.560;17.852;2022-12-13T09:00:13;10.50;;;8.05;;
21727;SDS011;11026;50.560;17.852;2022-12-13T09:02:42;11.80;;;8.57;;
21727;SDS011;11026;50.560;17.852;2022-12-13T09:05:10;42.40;;;24.55;;
21727;SDS011;11026;50.560;17.852;2022-12-13T09:07:59;11.55;;;8.18;;
21727;SDS011;11026;50.560;17.852;2022-12-13T09:10:29;9.55;;;7.50;;
21727;SDS011;11026;50.560;17.852;2022-12-13T09:13:05;12.13;;;7.60;;
21727;SDS011;11026;50.560;17.852;2022-12-13T09:15:39;22.23;;;13.25;;
21727;SDS011;11026;50.560;17.852;2022-12-13T09:18:11;30.05;;;16.35;;
21727;SDS011;11026;50.560;17.852;2022-12-13T09:20:49;65.85;;;31.98;;
21727;SDS011;11026;50.560;17.852;2022-12-13T09:23:17;116.90;;;53.42;;
21727;SDS011;11026;50.560;17.852;2022-12-13T09:25:53;114.18;;;52.78;;
21727;SDS011;11026;50.560;17.852;2022-12-13T09:28:31;24.02;;;15.07;;
21727;SDS011;11026;50.560;17.852;2022-12-13T09:31:05;63.75;;;34.92;;
21727;SDS011;11026;50.560;17.852;2022-12-13T09:33:35;35.65;;;21.75;;
21727;SDS011;11026;50.560;17.852;2022-12-13T09:36:09;20.88;;;12.90;;
21727;SDS011;11026;50.560;17.852;2022-12-13T09:38:39;23.13;;;15.27;;
21727;SDS011;11026;50.560;17.852;2022-12-13T09:41:21;19.42;;;12.32;;
21727;SDS011;11026;50.560;17.852;2022-12-13T09:44:06;46.38;;;27.73;;
21727;SDS011;11026;50.560;17.852;2022-12-13T09:46:59;27.40;;;17.35;;
21727;SDS011;11026;50.560;17.852;2022-12-13T09:49:40;22.08;;;13.13;;
21727;SDS011;11026;50.560;17.852;2022-12-13T09:52:20;14.18;;;10.23;;
21727;SDS011;11026;50.560;17.852;2022-12-13T09:54:53;13.60;;;9.82;;
21727;SDS011;11026;50.560;17.852;2022-12-13T09:57:24;13.52;;;8.70;;
21727;SDS011;11026;50.560;17.852;2022-12-13T10:00:04;20.40;;;12.23;;
21727;SDS011;11026;50.560;17.852;2022-12-13T10:02:33;19.92;;;10.75;;
21727;SDS011;11026;50.560;17.852;2022-12-13T10:07:53;10.98;;;7.57;;
21727;SDS011;11026;50.560;17.852;2022-12-13T10:10:24;14.05;;;8.93;;
21727;SDS011;11026;50.560;17.852;2022-12-13T10:13:00;10.68;;;8.00;;
21727;SDS011;11026;50.560;17.852;2022-12-13T10:15:36;11.07;;;7.70;;
21727;SDS011;11026;50.560;17.852;2022-12-13T10:18:08;11.77;;;7.88;;
21727;SDS011;11026;50.560;17.852;2022-12-13T10:20:41;12.52;;;9.35;;
21727;SDS011;11026;50.560;17.852;2022-12-13T10:23:09;17.08;;;10.70;;
21727;SDS011;11026;50.560;17.852;2022-12-13T10:25:59;12.95;;;7.88;;
21727;SDS011;11026;50.560;17.852;2022-12-13T10:28:30;13.65;;;9.10;;
21727;SDS011;11026;50.560;17.852;2022-12-13T10:31:05;26.15;;;15.57;;
21727;SDS011;11026;50.560;17.852;2022-12-13T10:33:36;10.30;;;7.45;;
21727;SDS011;11026;50.560;17.852;2022-12-13T10:38:56;11.15;;;8.20;;
21727;SDS011;11026;50.560;17.852;2022-12-13T10:41:31;11.57;;;8.15;;
21727;SDS011;11026;50.560;17.852;2022-12-13T10:49:47;17.55;;;11.10;;
21727;SDS011;11026;50.560;17.852;2022-12-13T10:58:03;14.52;;;8.68;;
21727;SDS011;11026;50.560;17.852;2022-12-13T11:00:42;18.42;;;10.65;;
21727;SDS011;11026;50.560;17.852;2022-12-13T11:03:26;10.65;;;7.53;;
21727;SDS011;11026;50.560;17.852;2022-12-13T11:08:38;13.13;;;8.35;;
21727;SDS011;11026;50.560;17.852;2022-12-13T11:11:08;12.25;;;8.63;;
21727;SDS011;11026;50.560;17.852;2022-12-13T11:13:43;11.50;;;7.03;;
21727;SDS011;11026;50.560;17.852;2022-12-13T11:18:57;12.07;;;7.18;;
21727;SDS011;11026;50.560;17.852;2022-12-13T11:21:32;16.10;;;9.50;;
21727;SDS011;11026;50.560;17.852;2022-12-13T11:24:03;13.50;;;7.97;;
21727;SDS011;11026;50.560;17.852;2022-12-13T11:26:35;9.98;;;7.13;;
21727;SDS011;11026;50.560;17.852;2022-12-13T11:35:03;7.70;;;5.50;;
21727;SDS011;11026;50.560;17.852;2022-12-13T11:40:50;10.32;;;6.97;;
21727;SDS011;11026;50.560;17.852;2022-12-13T11:43:45;11.27;;;8.00;;
21727;SDS011;11026;50.560;17.852;2022-12-13T11:49:14;12.45;;;9.15;;
21727;SDS011;11026;50.560;17.852;2022-12-13T11:51:49;19.08;;;10.55;;
21727;SDS011;11026;50.560;17.852;2022-12-13T11:54:25;15.25;;;9.35;;
21727;SDS011;11026;50.560;17.852;2022-12-13T11:57:00;15.75;;;9.38;;
21727;SDS011;11026;50.560;17.852;2022-12-13T11:59:40;11.57;;;7.85;;
21727;SDS011;11026;50.560;17.852;2022-12-13T12:04:53;10.25;;;7.15;;
21727;SDS011;11026;50.560;17.852;2022-12-13T12:10:04;12.57;;;7.97;;
21727;SDS011;11026;50.560;17.852;2022-12-13T12:12:40;24.85;;;11.63;;
21727;SDS011;11026;50.560;17.852;2022-12-13T12:15:16;24.33;;;11.73;;
21727;SDS011;11026;50.560;17.852;2022-12-13T12:17:53;10.20;;;6.72;;
21727;SDS011;11026;50.560;17.852;2022-12-13T12:20:26;12.48;;;7.07;;
21727;SDS011;11026;50.560;17.852;2022-12-13T12:49:01;17.38;;;10.52;;
21727;SDS011;11026;50.560;17.852;2022-12-13T12:51:55;16.25;;;10.88;;
21727;SDS011;11026;50.560;17.852;2022-12-13T12:57:55;29.67;;;18.90;;
21727;SDS011;11026;50.560;17.852;2022-12-13T13:00:41;35.90;;;22.58;;
21727;SDS011;11026;50.560;17.852;2022-12-13T13:03:39;28.42;;;18.33;;
21727;SDS011;11026;50.560;17.852;2022-12-13T13:06:11;37.80;;;21.98;;
21727;SDS011;11026;50.560;17.852;2022-12-13T13:08:58;39.30;;;25.83;;
21727;SDS011;11026;50.560;17.852;2022-12-13T13:11:35;55.80;;;31.63;;
21727;SDS011;11026;50.560;17.852;2022-12-13T13:22:42;34.15;;;21.33;;
21727;SDS011;11026;50.560;17.852;2022-12-13T13:25:32;24.77;;;15.98;;
21727;SDS011;11026;50.560;17.852;2022-12-13T13:28:20;26.15;;;15.82;;
21727;SDS011;11026;50.560;17.852;2022-12-13T13:31:04;25.02;;;14.95;;
21727;SDS011;11026;50.560;17.852;2022-12-13T13:33:52;31.90;;;17.92;;
21727;SDS011;11026;50.560;17.852;2022-12-13T13:36:53;29.88;;;17.27;;
21727;SDS011;11026;50.560;17.852;2022-12-13T13:39:35;43.97;;;22.65;;
21727;SDS011;11026;50.560;17.852;2022-12-13T13:52:55;32.97;;;19.65;;
21727;SDS011;11026;50.560;17.852;2022-12-13T13:58:39;36.47;;;23.80;;
21727;SDS011;11026;50.560;17.852;2022-12-13T14:09:49;30.50;;;17.27;;
21727;SDS011;11026;50.560;17.852;2022-12-13T14:18:15;40.25;;;21.83;;
21727;SDS011;11026;50.560;17.852;2022-12-13T14:20:57;30.52;;;17.15;;
21727;SDS011;11026;50.560;17.852;2022-12-13T14:24:12;36.42;;;19.15;;
21727;SDS011;11026;50.560;17.852;2022-12-13T14:29:46;60.95;;;30.63;;
21727;SDS011;11026;50.560;17.852;2022-12-13T14:32:25;112.97;;;58.60;;
21727;SDS011;11026;50.560;17.852;2022-12-13T14:34:55;169.45;;;76.78;;
21727;SDS011;11026;50.560;17.852;2022-12-13T14:37:27;90.00;;;46.67;;
21727;SDS011;11026;50.560;17.852;2022-12-13T14:39:57;169.48;;;83.53;;
21727;SDS011;11026;50.560;17.852;2022-12-13T14:42:26;168.93;;;85.03;;
21727;SDS011;11026;50.560;17.852;2022-12-13T14:45:11;123.72;;;63.45;;
21727;SDS011;11026;50.560;17.852;2022-12-13T14:47:40;164.98;;;82.78;;
21727;SDS011;11026;50.560;17.852;2022-12-13T14:50:10;168.27;;;72.20;;
21727;SDS011;11026;50.560;17.852;2022-12-13T14:52:43;304.00;;;120.70;;
21727;SDS011;11026;50.560;17.852;2022-12-13T14:58:16;72.22;;;41.75;;
21727;SDS011;11026;50.560;17.852;2022-12-13T15:00:46;134.60;;;63.97;;
21727;SDS011;11026;50.560;17.852;2022-12-13T15:03:21;136.93;;;66.80;;
21727;SDS011;11026;50.560;17.852;2022-12-13T15:05:55;92.05;;;51.08;;
21727;SDS011;11026;50.560;17.852;2022-12-13T15:08:25;60.20;;;35.20;;
21727;SDS011;11026;50.560;17.852;2022-12-13T15:10:59;58.28;;;33.47;;
21727;SDS011;11026;50.560;17.852;2022-12-13T15:16:25;59.53;;;31.42;;
21727;SDS011;11026;50.560;17.852;2022-12-13T15:21:59;104.93;;;46.67;;
21727;SDS011;11026;50.560;17.852;2022-12-13T15:24:31;187.20;;;69.20;;
21727;SDS011;11026;50.560;17.852;2022-12-13T15:27:00;83.85;;;37.75;;
21727;SDS011;11026;50.560;17.852;2022-12-13T15:29:29;75.38;;;34.05;;
21727;SDS011;11026;50.560;17.852;2022-12-13T15:32:00;125.30;;;48.05;;
21727;SDS011;11026;50.560;17.852;2022-12-13T15:36:56;130.50;;;45.10;;
21727;SDS011;11026;50.560;17.852;2022-12-13T15:39:27;117.55;;;42.58;;
21727;SDS011;11026;50.560;17.852;2022-12-13T15:41:58;67.32;;;28.02;;
21727;SDS011;11026;50.560;17.852;2022-12-13T15:44:30;90.05;;;35.55;;
21727;SDS011;11026;50.560;17.852;2022-12-13T15:47:11;85.40;;;32.70;;
21727;SDS011;11026;50.560;17.852;2022-12-13T15:49:57;263.88;;;92.28;;
21727;SDS011;11026;50.560;17.852;2022-12-13T15:52:30;738.22;;;278.83;;
21727;SDS011;11026;50.560;17.852;2022-12-13T15:57:35;145.20;;;56.67;;
21727;SDS011;11026;50.560;17.852;2022-12-13T16:05:46;48.78;;;26.90;;
21727;SDS011;11026;50.560;17.852;2022-12-13T16:08:25;50.33;;;29.13;;
21727;SDS011;11026;50.560;17.852;2022-12-13T16:10:58;69.45;;;36.28;;
21727;SDS011;11026;50.560;17.852;2022-12-13T16:13:27;58.33;;;29.90;;
21727;SDS011;11026;50.560;17.852;2022-12-13T16:15:59;46.25;;;26.75;;
21727;SDS011;11026;50.560;17.852;2022-12-13T16:18:49;38.88;;;23.67;;
21727;SDS011;11026;50.560;17.852;2022-12-13T16:21:20;66.85;;;37.00;;
21727;SDS011;11026;50.560;17.852;2022-12-13T16:23:47;132.48;;;65.28;;
21727;SDS011;11026;50.560;17.852;2022-12-13T16:26:20;88.65;;;44.72;;
21727;SDS011;11026;50.560;17.852;2022-12-13T16:28:50;44.83;;;25.20;;
21727;SDS011;11026;50.560;17.852;2022-12-13T16:31:21;46.80;;;26.02;;
21727;SDS011;11026;50.560;17.852;2022-12-13T16:33:52;41.75;;;24.25;;
21727;SDS011;11026;50.560;17.852;2022-12-13T16:36:19;38.88;;;23.67;;
21727;SDS011;11026;50.560;17.852;2022-12-13T16:38:47;46.88;;;26.33;;
21727;SDS011;11026;50.560;17.852;2022-12-13T16:41:15;45.78;;;24.13;;
21727;SDS011;11026;50.560;17.852;2022-12-13T16:43:57;51.40;;;27.45;;
21727;SDS011;11026;50.560;17.852;2022-12-13T16:46:28;44.38;;;25.98;;
21727;SDS011;11026;50.560;17.852;2022-12-13T16:49:20;43.20;;;25.27;;
21727;SDS011;11026;50.560;17.852;2022-12-13T16:51:51;48.17;;;28.48;;
21727;SDS011;11026;50.560;17.852;2022-12-13T16:54:19;43.00;;;24.83;;
21727;SDS011;11026;50.560;17.852;2022-12-13T16:56:51;37.45;;;22.30;;
21727;SDS011;11026;50.560;17.852;2022-12-13T16:59:21;32.72;;;19.13;;
21727;SDS011;11026;50.560;17.852;2022-12-13T17:01:50;35.00;;;20.90;;
21727;SDS011;11026;50.560;17.852;2022-12-13T17:04:20;40.28;;;21.15;;
21727;SDS011;11026;50.560;17.852;2022-12-13T17:06:49;40.85;;;22.65;;
21727;SDS011;11026;50.560;17.852;2022-12-13T17:09:21;48.03;;;23.58;;
21727;SDS011;11026;50.560;17.852;2022-12-13T17:11:50;32.47;;;18.95;;
21727;SDS011;11026;50.560;17.852;2022-12-13T17:14:17;34.05;;;20.17;;
21727;SDS011;11026;50.560;17.852;2022-12-13T17:16:45;30.90;;;18.73;;
21727;SDS011;11026;50.560;17.852;2022-12-13T17:19:13;47.30;;;26.20;;
21727;SDS011;11026;50.560;17.852;2022-12-13T17:21:47;136.30;;;55.35;;
21727;SDS011;11026;50.560;17.852;2022-12-13T17:24:19;282.77;;;104.95;;
21727;SDS011;11026;50.560;17.852;2022-12-13T17:26:47;59.63;;;29.73;;
21727;SDS011;11026;50.560;17.852;2022-12-13T17:29:23;77.10;;;36.55;;
21727;SDS011;11026;50.560;17.852;2022-12-13T17:31:51;55.20;;;27.67;;
21727;SDS011;11026;50.560;17.852;2022-12-13T17:34:19;45.65;;;25.38;;
21727;SDS011;11026;50.560;17.852;2022-12-13T17:36:47;43.65;;;24.63;;